Sabine, Texas
Current Conditions -  °F | °C
As of 7:53 AM on Wednesday 28 Jan 2015 (Local Time) from KBPT Reporting Station
Haze Haze  
Wind Chill: 52°   Ceiling: Unl
Heat Index: 52°   Visibility: 4mi
Dew Point: 49°   Wind: 7mph
Humidity: 89%   Direction: 100°E
Pressure: 30.2"   Gusts: NA
Location:  29.7569°N, 94.1898°W
Report Text: KBPT 281353Z 10006KT 4SM BR CLR 11/09 A3020 RMK AO2 SLP226 T01110094
Loading
Personal Weather Stations






























Interactive Weather Map New forecast layout! Learn more

10-Day Weather Forecast

Advertisements
Track Severe Weather on mobile